Time;durP1;ratioP1;P1;durP2;ratioP2;P2;SDS_P1;SDS_P2;PMS_P1;PMS_P2;Temp;Humidity;BMP_temperature;BMP_pressure;BME280_temperature;BME280_humidity;BME280_pressure;Samples;Min_cycle;Max_cycle;Signal;HPM_P1;HPM_P2
2021/07/25 00:00:00;;;;;;;7.68;6.05;;;;;;;14.55;68.60;93671.81;5090919;28;20083;-57
2021/07/25 00:02:26;;;;;;;6.22;5.40;;;;;;;14.50;68.75;93675.56;5090845;28;20040;-55
2021/07/25 00:04:51;;;;;;;10.90;5.50;;;;;;;14.50;68.29;93679.06;5090890;28;20120;-54
2021/07/25 00:07:17;;;;;;;9.02;5.80;;;;;;;14.51;67.68;93674.97;5091227;28;20069;-52
2021/07/25 00:09:42;;;;;;;7.45;6.13;;;;;;;14.49;67.99;93688.69;5091138;28;20113;-53
2021/07/25 00:12:08;;;;;;;8.13;6.70;;;;;;;14.41;67.68;93679.69;5090650;28;20477;-50
2021/07/25 00:14:33;;;;;;;7.18;6.20;;;;;;;14.32;68.32;93674.78;5091049;28;20020;-54
2021/07/25 00:16:59;;;;;;;6.95;6.28;;;;;;;14.32;68.30;93674.78;5089353;28;20028;-51
2021/07/25 00:19:24;;;;;;;9.27;6.43;;;;;;;14.26;68.48;93677.03;5090976;28;20032;-51
2021/07/25 00:21:50;;;;;;;7.15;6.30;;;;;;;14.23;68.53;93678.16;5090947;28;20036;-56
2021/07/25 00:24:21;;;;;;;8.32;5.90;;;;;;;14.12;68.61;93671.00;5090833;28;20412;-50
2021/07/25 00:26:48;;;;;;;7.40;5.97;;;;;;;14.10;68.84;93676.41;5090598;28;20024;-55
2021/07/25 00:29:13;;;;;;;8.27;6.22;;;;;;;14.12;68.77;93664.75;5090465;28;20656;-55
2021/07/25 00:31:39;;;;;;;8.00;6.03;;;;;;;14.13;69.50;93671.75;5090722;28;20032;-54
2021/07/25 00:34:04;;;;;;;5.95;5.10;;;;;;;14.13;68.71;93672.50;5090642;28;20039;-52
2021/07/25 00:36:30;;;;;;;6.05;5.45;;;;;;;14.15;68.19;93669.88;5090644;28;20596;-55
2021/07/25 00:38:56;;;;;;;10.18;5.93;;;;;;;14.06;67.93;93675.31;5090609;28;20189;-55
2021/07/25 00:41:21;;;;;;;9.00;6.50;;;;;;;13.85;69.06;93666.59;5104735;28;20476;-58
2021/07/25 00:43:47;;;;;;;7.20;6.47;;;;;;;13.72;69.96;93662.03;5110633;28;20484;-52
2021/07/25 00:46:14;;;;;;;7.68;6.32;;;;;;;13.71;70.72;93657.78;5110495;28;20039;-56
2021/07/25 00:48:40;;;;;;;7.55;6.35;;;;;;;13.64;70.94;93656.53;5110724;28;20039;-51
2021/07/25 00:51:06;;;;;;;7.13;6.15;;;;;;;13.57;70.92;93651.78;5110273;28;20028;-51
2021/07/25 00:53:37;;;;;;;7.72;6.20;;;;;;;13.68;70.67;93668.00;5092074;28;20082;-52
2021/07/25 00:56:04;;;;;;;7.13;6.18;;;;;;;13.69;69.97;93666.69;5089994;28;20528;-54
2021/07/25 00:58:31;;;;;;;7.65;5.85;;;;;;;13.69;69.29;93666.69;5089916;28;20020;-52
2021/07/25 01:00:56;;;;;;;11.88;6.07;;;;;;;13.62;68.70;93661.91;5089771;28;20048;-54
2021/07/25 01:03:29;;;;;;;7.20;5.85;;;;;;;13.53;69.33;93670.84;5089713;28;20390;-53
2021/07/25 01:06:10;;;;;;;7.57;5.78;;;;;;;13.60;69.56;93670.06;5071801;28;20032;-55
2021/07/25 01:08:42;;;;;;;7.57;5.70;;;;;;;13.61;69.84;93673.56;5090150;28;20026;-54
2021/07/25 01:11:10;;;;;;;6.65;5.93;;;;;;;13.53;70.02;93668.06;5089756;28;20030;-54
2021/07/25 01:13:42;;;;;;;10.82;5.97;;;;;;;13.55;69.74;93670.28;5071747;28;20028;-54
2021/07/25 01:16:08;;;;;;;6.03;5.43;;;;;;;13.52;69.28;93674.16;5090041;28;20055;-53
2021/07/25 01:18:52;;;;;;;7.82;5.75;;;;;;;13.42;69.19;93668.50;5089583;28;20502;-56
2021/07/25 01:21:19;;;;;;;7.32;5.78;;;;;;;13.39;69.36;93666.84;5089969;28;20020;-53
2021/07/25 01:23:46;;;;;;;7.20;6.13;;;;;;;13.38;69.91;93670.91;5089812;28;20039;-51
2021/07/25 01:26:13;;;;;;;8.00;5.70;;;;;;;13.33;70.16;93668.34;5089857;28;20016;-54
2021/07/25 01:28:44;;;;;;;6.30;5.18;;;;;;;13.40;70.45;93671.09;5089843;28;20040;-51
2021/07/25 01:31:38;;;;;;;6.55;5.85;;;;;;;13.37;70.03;93671.47;5089555;28;20028;-54
2021/07/25 01:34:04;;;;;;;7.90;5.60;;;;;;;13.44;69.63;93676.25;5064224;28;20423;-58
2021/07/25 01:36:30;;;;;;;7.35;5.15;;;;;;;13.45;68.97;93678.44;5071507;28;20103;-58
2021/07/25 01:38:55;;;;;;;11.23;6.10;;;;;;;13.47;68.64;93667.53;5071353;28;20024;-58
2021/07/25 01:41:21;;;;;;;8.43;5.97;;;;;;;13.40;68.68;93665.56;5103644;28;20059;-56
2021/07/25 01:43:48;;;;;;;8.80;6.75;;;;;;;13.39;69.40;93655.00;5110053;28;20028;-53
2021/07/25 01:46:13;;;;;;;7.25;5.97;;;;;;;13.26;69.69;93658.75;5091799;28;20062;-55
2021/07/25 01:48:39;;;;;;;7.13;6.38;;;;;;;13.24;69.79;93668.94;5096897;28;20056;-49
2021/07/25 01:51:05;;;;;;;26.95;7.55;;;;;;;13.21;69.40;93659.69;5089678;28;20028;-50
2021/07/25 01:53:31;;;;;;;8.75;5.85;;;;;;;13.19;68.51;93659.53;5070993;28;20040;-50
2021/07/25 01:55:57;;;;;;;5.63;5.00;;;;;;;13.18;69.12;93660.84;5069319;28;20028;-50
2021/07/25 01:58:22;;;;;;;5.93;5.35;;;;;;;13.10;68.72;93657.38;5069275;28;20030;-51
2021/07/25 02:00:48;;;;;;;6.15;5.38;;;;;;;13.09;68.91;93655.88;5069313;28;20045;-49
2021/07/25 02:03:25;;;;;;;8.65;5.82;;;;;;;13.04;69.02;93659.56;5069295;28;20040;-50
2021/07/25 02:05:51;;;;;;;6.40;5.50;;;;;;;12.95;69.46;93665.69;5069153;28;20039;-51
2021/07/25 02:08:17;;;;;;;6.85;5.55;;;;;;;12.73;69.59;93645.03;5069131;28;20021;-51
2021/07/25 02:10:44;;;;;;;20.35;6.50;;;;;;;12.80;70.16;93674.03;5069383;28;20421;-47
2021/07/25 02:13:11;;;;;;;10.68;5.70;;;;;;;12.85;69.65;93673.09;5069327;28;20390;-46
2021/07/25 02:15:36;;;;;;;6.57;5.88;;;;;;;12.84;70.06;93671.66;5072707;28;20032;-47
2021/07/25 02:18:02;;;;;;;6.25;5.65;;;;;;;12.78;70.72;93673.84;5073138;28;20043;-49
2021/07/25 02:20:27;;;;;;;9.23;6.38;;;;;;;12.72;70.70;93673.31;5072961;28;20523;-58
2021/07/25 02:22:52;;;;;;;6.60;5.90;;;;;;;12.73;70.67;93669.25;5073060;28;20513;-58
2021/07/25 02:25:18;;;;;;;7.47;6.47;;;;;;;12.74;70.90;93670.72;5072607;28;20031;-58
2021/07/25 02:27:43;;;;;;;9.25;6.53;;;;;;;12.72;71.20;93674.06;5072938;28;20031;-58
2021/07/25 02:30:09;;;;;;;8.88;6.10;;;;;;;12.73;71.21;93672.75;5072866;28;20033;-58
2021/07/25 02:32:35;;;;;;;8.07;6.35;;;;;;;12.78;70.79;93665.53;5072845;28;20078;-58
2021/07/25 02:35:00;;;;;;;7.80;6.63;;;;;;;12.69;71.11;93669.63;5072643;28;20028;-58
2021/07/25 02:37:26;;;;;;;8.95;6.30;;;;;;;12.67;71.29;93665.94;5072809;28;20028;-58
2021/07/25 02:39:51;;;;;;;6.82;5.88;;;;;;;12.73;71.01;93672.03;5074027;28;20024;-57
2021/07/25 02:42:16;;;;;;;7.45;6.45;;;;;;;12.73;70.72;93675.53;5092720;28;20024;-58
2021/07/25 02:44:42;;;;;;;12.88;6.90;;;;;;;12.66;70.26;93668.00;5092954;28;20028;-58
2021/07/25 02:47:07;;;;;;;9.73;7.07;;;;;;;12.63;70.30;93665.56;5092557;28;20027;-56
2021/07/25 02:49:33;;;;;;;8.40;6.55;;;;;;;12.59;70.63;93662.44;5092384;28;20028;-57
2021/07/25 02:52:01;;;;;;;7.30;6.55;;;;;;;12.56;70.69;93674.66;5087065;28;20028;-56
2021/07/25 02:54:27;;;;;;;8.82;6.53;;;;;;;12.57;70.43;93670.56;5072108;28;20525;-55
2021/07/25 02:56:53;;;;;;;6.93;6.13;;;;;;;12.54;69.75;93663.41;5072326;28;20033;-55
2021/07/25 02:59:18;;;;;;;7.60;5.70;;;;;;;12.53;69.73;93664.69;5072010;28;20563;-54
2021/07/25 03:01:45;;;;;;;8.52;5.47;;;;;;;12.49;69.46;93667.84;5071732;28;20048;-56
2021/07/25 03:04:11;;;;;;;5.50;4.95;;;;;;;12.49;69.44;93680.94;5072245;28;20028;-55
2021/07/25 03:06:36;;;;;;;6.85;5.40;;;;;;;12.46;69.58;93682.03;5072047;28;20021;-54
2021/07/25 03:09:01;;;;;;;7.80;6.07;;;;;;;12.36;69.65;93683.91;5072103;28;20413;-54
2021/07/25 03:11:27;;;;;;;8.48;6.30;;;;;;;12.34;69.91;93692.03;5071896;28;20625;-58
2021/07/25 03:13:52;;;;;;;11.90;6.60;;;;;;;12.33;70.87;93687.78;5071661;28;20020;-57
2021/07/25 03:16:18;;;;;;;8.13;6.22;;;;;;;12.32;70.82;93692.59;5071640;28;20024;-58
2021/07/25 03:18:43;;;;;;;9.40;7.65;;;;;;;12.37;71.52;93701.97;5071698;28;20028;-57
2021/07/25 03:21:08;;;;;;;8.23;7.25;;;;;;;12.31;71.37;93695.88;5071797;28;20421;-58
2021/07/25 03:23:34;;;;;;;8.55;5.97;;;;;;;12.27;70.93;93695.53;5071763;28;20021;-58
2021/07/25 03:25:59;;;;;;;10.07;6.45;;;;;;;12.37;70.93;93697.19;5071182;28;20509;-57
2021/07/25 03:28:25;;;;;;;8.45;6.38;;;;;;;12.35;70.74;93707.34;5071549;28;20129;-57
2021/07/25 03:30:51;;;;;;;10.50;6.53;;;;;;;12.38;71.29;93701.44;5071421;28;20028;-54
2021/07/25 03:33:17;;;;;;;8.63;6.47;;;;;;;12.31;71.07;93706.97;5071343;28;20025;-54
2021/07/25 03:35:43;;;;;;;7.82;6.57;;;;;;;12.35;71.29;93699.75;5071305;28;20070;-54
2021/07/25 03:38:08;;;;;;;7.68;6.88;;;;;;;12.30;71.68;93700.69;5071351;28;20108;-54
2021/07/25 03:40:35;;;;;;;10.52;6.75;;;;;;;12.31;71.96;93695.88;5087015;28;20024;-55
2021/07/25 03:43:00;;;;;;;7.55;6.85;;;;;;;12.38;72.38;93701.44;5112302;28;20445;-55
2021/07/25 03:45:26;;;;;;;7.40;6.70;;;;;;;12.41;72.28;93696.81;5094702;28;20138;-50
2021/07/25 03:47:52;;;;;;;8.45;7.55;;;;;;;12.45;72.09;93700.69;5091779;28;20486;-53
2021/07/25 03:50:18;;;;;;;12.77;7.97;;;;;;;12.41;71.20;93680.22;5091692;28;20031;-48
2021/07/25 03:52:43;;;;;;;8.30;6.93;;;;;;;12.54;70.81;93693.88;5079604;28;20032;-50
2021/07/25 03:55:09;;;;;;;8.07;7.28;;;;;;;12.40;70.91;93687.78;5071001;28;20036;-53
2021/07/25 03:57:35;;;;;;;9.52;6.95;;;;;;;12.45;71.10;93702.72;5070854;28;20020;-51
2021/07/25 04:00:01;;;;;;;8.85;7.85;;;;;;;12.37;72.01;93691.66;5071353;28;20034;-52
2021/07/25 04:02:27;;;;;;;7.93;6.90;;;;;;;12.42;71.71;93703.81;5070766;28;20433;-49
2021/07/25 04:04:52;;;;;;;8.20;6.95;;;;;;;12.36;71.45;93706.78;5070965;28;20043;-50
2021/07/25 04:07:18;;;;;;;9.48;6.95;;;;;;;12.41;71.97;93710.66;5071191;28;20024;-54
2021/07/25 04:09:43;;;;;;;9.40;7.07;;;;;;;12.41;71.44;93724.50;5071034;28;20478;-51
2021/07/25 04:12:09;;;;;;;7.82;7.03;;;;;;;12.41;71.68;93710.66;5070655;28;20133;-51
2021/07/25 04:14:34;;;;;;;9.27;7.75;;;;;;;12.31;72.11;93706.97;5070942;28;20025;-51
2021/07/25 04:17:00;;;;;;;10.60;7.63;;;;;;;12.40;72.40;93717.50;5070591;28;20120;-52
2021/07/25 04:19:27;;;;;;;9.35;7.75;;;;;;;12.53;72.62;93718.03;5070461;28;20058;-53
2021/07/25 04:21:54;;;;;;;11.23;7.53;;;;;;;12.57;72.96;93720.44;5070503;28;20505;-58
2021/07/25 04:24:19;;;;;;;23.17;7.88;;;;;;;12.66;72.88;93717.09;5070400;28;20485;-50
2021/07/25 04:26:45;;;;;;;11.77;7.45;;;;;;;12.61;74.12;93718.78;5070259;28;20105;-50
2021/07/25 04:29:11;;;;;;;9.75;7.57;;;;;;;12.69;73.50;93696.63;5070788;28;20028;-52
2021/07/25 04:31:36;;;;;;;11.38;7.90;;;;;;;12.70;73.67;93692.53;5070190;28;20021;-52
2021/07/25 04:34:02;;;;;;;10.75;7.55;;;;;;;12.86;74.25;93694.00;5052858;28;20027;-53
2021/07/25 04:36:29;;;;;;;8.88;7.95;;;;;;;13.04;73.94;93701.13;5069596;28;20020;-53
2021/07/25 04:38:55;;;;;;;8.90;7.60;;;;;;;13.11;73.63;93699.66;5070120;28;20027;-56
2021/07/25 04:41:23;;;;;;;10.00;7.78;;;;;;;13.04;72.98;93694.88;5084299;28;20805;-56
2021/07/25 04:43:59;;;;;;;12.15;8.07;;;;;;;13.10;73.42;93704.50;5072693;28;20102;-56
2021/07/25 04:46:29;;;;;;;7.80;7.10;;;;;;;13.07;73.19;93682.69;5090253;28;20026;-55
2021/07/25 04:49:13;;;;;;;;;;;;;;;13.25;73.54;93704.44;5090714;28;20035;-55
2021/07/25 04:51:40;;;;;;;8.13;6.57;;;;;;;13.27;73.98;93712.19;5087459;28;19938;-53
2021/07/25 04:54:09;;;;;;;13.38;7.47;;;;;;;13.32;73.84;93709.19;5069988;28;20099;-51
2021/07/25 04:56:59;;;;;;;8.15;7.35;;;;;;;13.33;73.68;93710.69;5069998;28;20471;-51
2021/07/25 04:59:30;;;;;;;8.30;7.50;;;;;;;13.39;73.59;93708.44;5069946;28;20028;-53
2021/07/25 05:02:00;;;;;;;8.57;7.68;;;;;;;13.47;73.66;93723.00;5069444;28;20109;-50
2021/07/25 05:04:27;;;;;;;9.20;8.30;;;;;;;13.56;73.98;93725.19;5070001;28;20483;-50
2021/07/25 05:06:53;;;;;;;11.25;7.40;;;;;;;13.63;74.25;93726.47;5069621;28;20031;-50
2021/07/25 05:09:19;;;;;;;8.77;7.93;;;;;;;13.70;75.22;93728.47;5069853;28;20021;-49
2021/07/25 05:11:47;;;;;;;11.88;8.32;;;;;;;13.78;76.07;93731.19;5069496;28;20033;-51
2021/07/25 05:14:36;;;;;;;9.57;7.85;;;;;;;13.88;76.57;93732.06;5069842;28;20502;-49
2021/07/25 05:17:16;;;;;;;10.02;8.05;;;;;;;13.88;77.49;93734.84;5059145;28;20115;-49
2021/07/25 05:19:48;;;;;;;9.88;8.88;;;;;;;14.08;78.00;93728.22;5069775;28;20024;-51
2021/07/25 05:22:29;;;;;;;8.93;7.60;;;;;;;14.21;77.52;93730.75;5069716;28;20025;-50
2021/07/25 05:24:54;;;;;;;11.30;8.13;;;;;;;14.39;77.69;93737.88;5069431;28;20070;-50
2021/07/25 05:27:22;;;;;;;9.18;8.23;;;;;;;14.61;76.91;93731.41;5051545;28;20043;-51
2021/07/25 05:29:49;;;;;;;8.93;8.02;;;;;;;14.61;76.64;93725.84;5069324;28;20490;-51
2021/07/25 05:32:15;;;;;;;8.50;7.57;;;;;;;14.62;77.26;93721.75;5069557;28;20025;-55
2021/07/25 05:34:40;;;;;;;8.73;7.88;;;;;;;14.81;77.00;93735.13;5069695;28;20032;-56
2021/07/25 05:37:05;;;;;;;19.13;8.38;;;;;;;14.83;76.75;93726.94;5079074;28;20570;-55
2021/07/25 05:39:31;;;;;;;9.23;7.70;;;;;;;14.94;76.40;93735.53;5089415;28;20039;-54
2021/07/25 05:41:56;;;;;;;10.68;7.63;;;;;;;15.05;75.80;93737.84;5108462;28;20024;-57
2021/07/25 05:44:22;;;;;;;10.57;8.30;;;;;;;15.33;74.64;93735.91;5109659;28;20028;-57
2021/07/25 05:46:47;;;;;;;11.43;8.73;;;;;;;15.42;73.40;93740.81;5109871;28;20032;-52
2021/07/25 05:49:13;;;;;;;14.20;8.40;;;;;;;15.36;74.06;93718.06;5112701;28;20023;-51
2021/07/25 05:51:38;;;;;;;9.55;8.63;;;;;;;15.45;74.69;93742.47;5114245;28;20035;-53
2021/07/25 05:54:04;;;;;;;16.75;8.38;;;;;;;15.50;74.49;93747.06;5114104;28;20022;-57
2021/07/25 05:56:30;;;;;;;8.95;8.05;;;;;;;15.60;74.82;93745.06;5114271;28;20030;-58
2021/07/25 05:58:55;;;;;;;10.90;7.20;;;;;;;15.75;73.49;93747.66;5114190;28;20113;-58
2021/07/25 06:01:21;;;;;;;10.38;8.70;;;;;;;15.88;74.71;93750.84;5113796;28;20116;-58
2021/07/25 06:03:47;;;;;;;10.25;8.13;;;;;;;16.03;74.56;93749.91;5113840;28;20385;-59
2021/07/25 06:06:12;;;;;;;10.40;9.18;;;;;;;16.03;75.06;93757.50;5114089;28;20032;-51
2021/07/25 06:08:38;;;;;;;10.85;8.23;;;;;;;16.11;74.55;93752.59;5113652;28;20085;-53
2021/07/25 06:11:03;;;;;;;11.05;8.40;;;;;;;16.22;73.95;93744.44;5113590;28;20015;-51
2021/07/25 06:13:29;;;;;;;11.02;8.10;;;;;;;16.34;74.45;93750.22;5113755;28;20034;-51
2021/07/25 06:15:54;;;;;;;8.90;8.00;;;;;;;16.46;74.45;93748.34;5113515;28;20041;-51
2021/07/25 06:18:20;;;;;;;12.07;8.40;;;;;;;16.69;73.90;93748.78;5113710;28;20099;-51
2021/07/25 06:20:45;;;;;;;17.10;8.65;;;;;;;16.74;73.98;93747.03;5113634;28;20518;-51
2021/07/25 06:23:14;;;;;;;12.57;8.25;;;;;;;16.82;73.36;93751.19;5113692;28;20377;-52
2021/07/25 06:25:40;;;;;;;14.00;6.82;;;;;;;16.97;70.07;93747.41;5113589;28;20424;-52
2021/07/25 06:28:05;;;;;;;9.10;7.20;;;;;;;17.20;70.47;93753.31;5112475;28;20027;-51
2021/07/25 06:30:32;;;;;;;8.73;6.53;;;;;;;17.43;66.68;93748.78;5093129;28;20464;-51
2021/07/25 06:33:03;;;;;;;6.95;6.15;;;;;;;17.50;66.20;93746.44;5099304;28;20496;-52
2021/07/25 06:35:30;;;;;;;13.13;7.18;;;;;;;17.49;67.62;93747.75;5113095;28;20073;-53
2021/07/25 06:38:00;;;;;;;8.27;6.60;;;;;;;17.59;66.22;93743.69;5113331;28;20027;-53
2021/07/25 06:40:27;;;;;;;7.53;6.75;;;;;;;17.73;67.49;93750.31;5106202;28;20489;-53
2021/07/25 06:42:54;;;;;;;8.48;6.75;;;;;;;18.04;67.33;93747.63;5092910;28;20569;-51
2021/07/25 06:45:20;;;;;;;9.73;7.25;;;;;;;18.13;66.83;93750.38;5092527;28;20024;-53
2021/07/25 06:47:47;;;;;;;8.32;7.53;;;;;;;18.19;65.00;93750.81;5072452;28;20036;-50
2021/07/25 06:50:12;;;;;;;8.02;7.22;;;;;;;18.25;67.46;93741.38;5085196;28;20046;-53
2021/07/25 06:52:39;;;;;;;9.30;6.65;;;;;;;18.32;66.92;93748.88;5082949;28;20486;-52
2021/07/25 06:55:07;;;;;;;7.60;6.80;;;;;;;18.34;64.94;93749.75;5083829;28;20035;-51
2021/07/25 06:57:32;;;;;;;7.88;6.68;;;;;;;18.46;63.65;93749.88;5080813;28;20024;-52
2021/07/25 06:59:58;;;;;;;13.00;6.43;;;;;;;18.59;64.96;93741.00;5078917;28;20024;-51
2021/07/25 07:02:23;;;;;;;6.63;5.78;;;;;;;18.83;63.23;93739.88;5088556;28;20044;-51
2021/07/25 07:04:48;;;;;;;7.50;5.75;;;;;;;18.92;60.97;93747.50;5092476;28;20027;-49
2021/07/25 07:07:14;;;;;;;5.80;5.22;;;;;;;19.05;60.49;93741.38;5092360;28;20027;-46
2021/07/25 07:09:39;;;;;;;14.60;6.25;;;;;;;19.23;60.52;93745.38;5091979;28;20016;-51
2021/07/25 07:12:05;;;;;;;10.65;6.90;;;;;;;19.55;59.10;93739.19;5091966;28;20028;-51
2021/07/25 07:14:31;;;;;;;8.60;6.22;;;;;;;19.65;57.07;93731.41;5091906;28;20024;-52
2021/07/25 07:16:56;;;;;;;8.02;5.70;;;;;;;19.86;58.25;93735.53;5082356;28;20032;-54
2021/07/25 07:19:21;;;;;;;7.30;5.25;;;;;;;19.90;55.71;93727.38;5071648;28;20016;-56
2021/07/25 07:21:47;;;;;;;11.02;5.32;;;;;;;19.98;54.50;93725.81;5071789;28;20021;-54
2021/07/25 07:24:12;;;;;;;8.35;5.10;;;;;;;20.01;56.20;93735.09;5071889;28;20032;-55
2021/07/25 07:26:38;;;;;;;5.68;5.07;;;;;;;20.22;55.85;93735.81;5077853;28;20024;-56
2021/07/25 07:29:03;;;;;;;9.23;5.10;;;;;;;20.39;55.36;93732.66;5095359;28;20081;-53
2021/07/25 07:31:28;;;;;;;5.60;4.95;;;;;;;20.51;53.68;93727.06;5110426;28;20024;-55
2021/07/25 07:33:54;;;;;;;8.48;5.10;;;;;;;20.64;54.53;93728.56;5082630;28;20528;-56
2021/07/25 07:36:19;;;;;;;8.98;5.28;;;;;;;20.89;53.71;93732.22;5088553;28;20039;-56
2021/07/25 07:38:45;;;;;;;10.18;5.55;;;;;;;21.19;52.82;93735.41;5089046;28;20032;-53
2021/07/25 07:41:10;;;;;;;5.85;5.05;;;;;;;21.63;52.91;93738.00;5101059;28;20118;-57
2021/07/25 07:43:38;;;;;;;5.90;4.78;;;;;;;21.95;47.58;93730.72;5109057;28;20015;-55
2021/07/25 07:46:03;;;;;;;6.78;4.88;;;;;;;22.25;50.73;93740.84;5090117;28;20460;-55
2021/07/25 07:48:28;;;;;;;6.18;5.15;;;;;;;22.54;49.22;93732.59;5077894;28;20032;-57
2021/07/25 07:50:54;;;;;;;5.85;5.35;;;;;;;23.05;46.55;93733.22;5078290;28;20037;-57
2021/07/25 07:53:20;;;;;;;6.07;4.53;;;;;;;23.29;44.36;93737.31;5076623;28;20032;-50
2021/07/25 07:55:46;;;;;;;7.80;4.45;;;;;;;23.59;44.56;93730.41;5077255;28;20514;-55
2021/07/25 07:58:11;;;;;;;8.27;4.45;;;;;;;24.02;44.38;93733.97;5077429;28;20028;-58
2021/07/25 08:00:37;;;;;;;8.07;4.72;;;;;;;24.54;43.69;93737.88;5078636;28;20024;-54
2021/07/25 08:03:05;;;;;;;12.55;4.57;;;;;;;25.14;43.66;93729.38;5076637;28;20032;-58
2021/07/25 08:05:31;;;;;;;6.88;4.72;;;;;;;25.68;42.32;93733.16;5080007;28;20471;-59
2021/07/25 08:07:56;;;;;;;5.65;4.10;;;;;;;25.98;39.09;93723.09;5078741;28;20067;-56
2021/07/25 08:10:22;;;;;;;5.20;3.97;;;;;;;26.24;38.99;93729.84;5077639;28;20056;-55
2021/07/25 08:12:48;;;;;;;10.50;4.55;;;;;;;26.79;38.55;93727.09;5075161;28;20405;-58
2021/07/25 08:15:15;;;;;;;4.45;3.80;;;;;;;27.42;37.24;93732.97;5076621;28;20027;-57
2021/07/25 08:17:40;;;;;;;4.72;4.15;;;;;;;27.28;36.55;93727.53;5078246;28;20024;-59
2021/07/25 08:20:07;;;;;;;4.68;4.18;;;;;;;26.82;35.71;93726.50;5076514;28;20078;-54
2021/07/25 08:22:32;;;;;;;5.75;4.07;;;;;;;26.63;36.66;93737.75;5076268;28;20020;-58
2021/07/25 08:24:58;;;;;;;5.53;4.75;;;;;;;26.80;37.23;93728.53;5079920;28;20039;-49
2021/07/25 08:27:23;;;;;;;13.20;4.35;;;;;;;26.94;36.45;93729.09;5077098;28;20023;-57
2021/07/25 08:29:48;;;;;;;4.22;3.72;;;;;;;27.15;36.78;93727.72;5077095;28;20383;-56
2021/07/25 08:32:14;;;;;;;5.90;4.50;;;;;;;27.44;34.66;93739.47;5076587;28;20051;-57
2021/07/25 08:34:40;;;;;;;7.40;4.10;;;;;;;27.66;34.65;93731.00;5077643;28;20055;-56
2021/07/25 08:37:06;;;;;;;5.13;3.50;;;;;;;27.96;33.68;93734.88;5076315;28;20073;-55
2021/07/25 08:39:31;;;;;;;6.45;4.20;;;;;;;28.08;35.14;93729.66;5077705;28;20028;-55
2021/07/25 08:42:06;;;;;;;4.70;3.65;;;;;;;28.70;32.15;93724.53;5081313;28;20527;-57
2021/07/25 08:44:44;;;;;;;4.95;4.13;;;;;;;29.31;31.63;93727.84;5075988;28;20032;-54
2021/07/25 08:47:16;;;;;;;5.97;3.80;;;;;;;29.84;30.70;93727.91;5076327;28;20441;-57
2021/07/25 08:49:56;;;;;;;9.10;3.85;;;;;;;30.15;29.87;93720.19;5076521;28;20028;-49
2021/07/25 08:52:26;;;;;;;30.60;4.85;;;;;;;31.36;29.23;93710.19;5075180;28;20035;-50
2021/07/25 08:54:53;;;;;;;20.40;4.80;;;;;;;32.37;27.13;93715.00;5078736;28;20546;-58
2021/07/25 08:57:22;;;;;;;9.10;4.18;;;;;;;33.47;25.59;93718.06;5082065;28;20032;-55
2021/07/25 08:59:51;;;;;;;3.90;3.55;;;;;;;32.97;24.61;93708.78;5079763;28;20058;-62
2021/07/25 09:02:24;;;;;;;5.18;3.28;;;;;;;33.33;25.06;93715.03;5087045;28;20166;-57
2021/07/25 09:04:54;;;;;;;10.07;3.65;;;;;;;34.20;23.90;93716.78;5081304;28;20040;-60
2021/07/25 09:07:23;;;;;;;5.15;3.60;;;;;;;34.32;21.62;93720.50;5039039;28;20040;-59
2021/07/25 09:09:51;;;;;;;3.33;3.13;;;;;;;34.07;22.05;93723.81;5042581;28;20421;-65
2021/07/25 09:12:18;;;;;;;25.08;4.22;;;;;;;34.25;22.83;93726.88;5085490;28;20060;-55
2021/07/25 09:14:51;;;;;;;3.83;3.42;;;;;;;34.02;24.32;93719.47;5087771;28;20555;-60
2021/07/25 09:17:21;;;;;;;6.70;3.85;;;;;;;33.74;22.89;93717.00;5088827;28;20077;-60
2021/07/25 09:20:16;;;;;;;4.32;3.45;;;;;;;33.23;23.73;93712.75;5088273;28;20028;-62
2021/07/25 09:22:48;;;;;;;5.25;3.92;;;;;;;32.44;24.77;93710.09;5078235;28;20137;-63
2021/07/25 09:25:20;;;;;;;7.75;4.13;;;;;;;32.63;25.28;93706.88;5071982;28;20032;-69
2021/07/25 09:27:45;;;;;;;19.88;5.20;;;;;;;32.80;26.28;93705.69;5057739;28;20033;-53
2021/07/25 09:30:16;;;;;;;8.95;4.05;;;;;;;33.47;26.29;93672.25;5074254;28;20062;-59
2021/07/25 09:32:42;;;;;;;18.13;4.20;;;;;;;34.10;23.89;93703.09;5073968;28;20031;-62
2021/07/25 09:35:32;;;;;;;22.02;4.40;;;;;;;34.69;23.86;93695.75;5074904;28;20026;-60
2021/07/25 09:38:04;;;;;;;5.18;3.60;;;;;;;35.27;23.56;93694.69;5058488;28;20521;-62
2021/07/25 09:40:34;;;;;;;8.45;3.80;;;;;;;35.47;22.95;93698.41;5084752;28;20042;-58
2021/07/25 09:43:29;;;;;;;8.00;3.42;;;;;;;35.96;22.33;93692.84;5058859;28;20112;-49
2021/07/25 09:48:35;;;;;;;12.13;4.20;;;;;;;36.50;21.22;93684.34;5075027;28;20107;-64
2021/07/25 09:51:03;;;;;;;4.80;4.13;;;;;;;37.07;21.76;93685.75;5074376;28;20024;-61
2021/07/25 09:53:44;;;;;;;4.28;3.67;;;;;;;37.56;20.94;93685.63;5056231;28;20036;-65
2021/07/25 09:56:13;;;;;;;4.40;3.30;;;;;;;37.82;18.86;93679.78;5074413;28;20520;-63
2021/07/25 09:58:39;;;;;;;4.13;3.80;;;;;;;37.03;18.95;93679.28;5074732;28;20099;-66
2021/07/25 10:01:05;;;;;;;4.38;3.67;;;;;;;37.06;20.54;93672.06;5072071;28;20072;-64
2021/07/25 10:03:34;;;;;;;6.15;3.47;;;;;;;36.50;19.36;93675.69;5068808;28;20051;-67
2021/07/25 10:06:18;;;;;;;4.22;3.80;;;;;;;36.83;20.46;93667.78;5047402;28;20043;-66
2021/07/25 10:08:46;;;;;;;5.90;3.60;;;;;;;36.43;21.19;93677.13;5065259;28;20409;-64
2021/07/25 10:11:19;;;;;;;10.32;4.05;;;;;;;37.16;20.25;93672.06;5054330;28;20492;-67
2021/07/25 10:13:47;;;;;;;5.47;3.88;;;;;;;36.91;20.79;93677.16;5056205;28;20040;-63
2021/07/25 10:16:17;;;;;;;3.95;3.55;;;;;;;36.00;20.51;93661.97;5074203;28;20440;-63
2021/07/25 10:18:43;;;;;;;7.00;3.88;;;;;;;34.68;21.60;93667.75;5071136;28;20025;-62
2021/07/25 10:21:09;;;;;;;4.85;3.90;;;;;;;33.46;23.08;93659.38;5065934;28;20090;-63
2021/07/25 10:23:41;;;;;;;6.20;3.72;;;;;;;32.39;24.91;93666.44;5068795;28;20021;-65
2021/07/25 10:26:07;;;;;;;6.25;3.92;;;;;;;33.10;25.52;93668.22;5056427;28;20035;-65
2021/07/25 10:28:35;;;;;;;28.92;4.03;;;;;;;34.69;20.76;93664.19;5058570;28;20122;-61
2021/07/25 10:31:02;;;;;;;6.88;3.38;;;;;;;35.61;20.60;93661.13;5073728;28;20039;-59
2021/07/25 10:33:31;;;;;;;4.95;3.38;;;;;;;36.27;19.06;93651.22;5062105;28;20567;-58
2021/07/25 10:35:57;;;;;;;16.95;3.75;;;;;;;37.24;17.75;93658.38;5080265;28;20028;-59
2021/07/25 10:38:22;;;;;;;14.13;3.60;;;;;;;37.37;17.60;93659.06;5074434;28;20481;-61
2021/07/25 10:40:48;;;;;;;6.50;3.58;;;;;;;37.50;16.85;93663.34;5084062;28;20469;-60
2021/07/25 10:43:16;;;;;;;4.32;3.92;;;;;;;36.81;17.39;93653.38;5078119;28;20016;-59
2021/07/25 10:45:42;;;;;;;4.85;3.90;;;;;;;36.96;17.52;93651.94;5081659;28;20416;-59
2021/07/25 10:48:14;;;;;;;5.78;3.28;;;;;;;37.65;17.11;93649.56;5077799;28;20032;-58
2021/07/25 10:50:39;;;;;;;5.25;3.35;;;;;;;37.88;17.03;93639.41;5070050;28;20043;-62
2021/07/25 10:53:05;;;;;;;4.18;3.38;;;;;;;38.39;17.63;93651.34;5074420;28;20037;-64
2021/07/25 10:55:41;;;;;;;3.08;2.80;;;;;;;37.47;15.20;93652.56;5086848;28;20028;-67
2021/07/25 10:58:09;;;;;;;3.42;3.13;;;;;;;35.88;17.55;93655.47;5073727;28;20115;-55
2021/07/25 11:00:56;;;;;;;6.22;5.07;;;;;;;34.68;19.33;93657.00;5075927;28;20097;-58
2021/07/25 11:03:24;;;;;;;4.15;3.42;;;;;;;34.90;17.86;93644.94;5080198;28;20024;-62
2021/07/25 11:05:59;;;;;;;5.10;3.88;;;;;;;35.60;18.38;93645.34;5077224;28;20037;-64
2021/07/25 11:08:50;;;;;;;4.75;3.35;;;;;;;36.30;18.29;93646.94;5075245;28;20050;-65
2021/07/25 11:11:25;;;;;;;4.25;3.20;;;;;;;36.37;18.02;93646.19;5076991;28;20509;-65
2021/07/25 11:13:50;;;;;;;5.18;3.40;;;;;;;35.85;19.00;93645.38;5077826;28;20025;-65
2021/07/25 11:16:28;;;;;;;4.47;3.40;;;;;;;35.67;18.64;93646.78;5074835;28;20033;-64
2021/07/25 11:18:54;;;;;;;5.13;3.42;;;;;;;35.72;19.98;93633.88;5079903;28;20045;-66
2021/07/25 11:21:34;;;;;;;3.83;3.40;;;;;;;34.62;18.37;93636.91;5072418;28;20063;-64
2021/07/25 11:24:00;;;;;;;5.07;3.60;;;;;;;34.88;19.44;93642.06;5074779;28;20482;-65
2021/07/25 11:26:36;;;;;;;4.60;3.40;;;;;;;35.49;19.40;93634.53;5064326;28;20028;-61
2021/07/25 11:29:07;;;;;;;6.95;3.55;;;;;;;35.91;18.08;93646.13;5079080;28;20524;-63
2021/07/25 11:31:33;;;;;;;5.50;3.83;;;;;;;36.26;17.81;93641.16;5061449;28;20112;-65
2021/07/25 11:33:59;;;;;;;4.82;3.38;;;;;;;36.08;18.46;93638.28;5080748;28;20023;-63
2021/07/25 11:36:24;;;;;;;4.13;3.70;;;;;;;35.55;19.32;93632.38;5076661;28;20053;-63